Terminal Aerodrome Forecast
Issued by NWS Boston, MA

Home | Current Version | Previous Version | Text Only | Print | Product List | Glossary On
Versions: 1 2 3 4 5 6 7 8 9 10 11 12 13 14 15 16 17 18 19 20 21 22 23 24 25 26 27 28 29 30 31 32 33 34 35 36 37 38 39 40 41 42 43 44 45 46
000
FTUS41 KBOX 221740
TAFPVD
TAF
KPVD 221740Z 2218/2318 16011KT P6SM -SHRA OVC035
     FM221900 16011KT P6SM -SHRA OVC025
     FM222000 16010G19KT P6SM -SHRA OVC015
     FM222200 16010G20KT 5SM -SHRA BR OVC010
     FM230700 22005KT 2SM BR VCSH OVC003
     FM231100 36005KT 3SM BR BKN003
     FM231300 01005KT P6SM FEW005 SCT030
     FM231400 01006KT P6SM SCT030 SCT200=

USA.gov is the U.S. government's official web portal to all federal, state and local government web resources and services.